sensor_id;sensor_type;location;lat;lon;timestamp;P1;durP1;ratioP1;P2;durP2;ratioP2
22201;SDS011;11266;51.522;6.302;2023-02-08T12:56:35;6.22;;;3.03;;
22201;SDS011;11266;51.522;6.302;2023-02-08T12:57:25;5.13;;;2.88;;
22201;SDS011;11266;51.522;6.302;2023-02-08T12:59:22;7.30;;;3.95;;
22201;SDS011;11266;51.522;6.302;2023-02-08T13:00:15;7.07;;;3.65;;
22201;SDS011;11266;51.522;6.302;2023-02-08T13:01:14;4.88;;;2.72;;
22201;SDS011;11266;51.522;6.302;2023-02-08T13:02:31;5.45;;;3.17;;
22201;SDS011;11266;51.522;6.302;2023-02-08T13:04:26;6.80;;;3.05;;
22201;SDS011;11266;51.522;6.302;2023-02-08T13:05:18;13.43;;;3.33;;
22201;SDS011;11266;51.522;6.302;2023-02-08T13:06:06;4.82;;;2.60;;
22201;SDS011;11266;51.522;6.302;2023-02-08T13:06:58;5.82;;;3.00;;
22201;SDS011;11266;51.522;6.302;2023-02-08T13:07:48;5.43;;;3.22;;
22201;SDS011;11266;51.522;6.302;2023-02-08T13:08:47;5.20;;;3.05;;
22201;SDS011;11266;51.522;6.302;2023-02-08T13:09:39;6.88;;;3.50;;
22201;SDS011;11266;51.522;6.302;2023-02-08T13:10:32;8.68;;;3.22;;
22201;SDS011;11266;51.522;6.302;2023-02-08T13:12:40;6.20;;;3.05;;
22201;SDS011;11266;51.522;6.302;2023-02-08T13:13:34;6.38;;;2.97;;
22201;SDS011;11266;51.522;6.302;2023-02-08T13:14:36;6.20;;;3.20;;
22201;SDS011;11266;51.522;6.302;2023-02-08T13:15:39;8.23;;;3.53;;
22201;SDS011;11266;51.522;6.302;2023-02-08T13:16:46;8.65;;;3.50;;
22201;SDS011;11266;51.522;6.302;2023-02-08T13:17:49;4.68;;;2.85;;
22201;SDS011;11266;51.522;6.302;2023-02-08T13:18:54;8.82;;;3.00;;
22201;SDS011;11266;51.522;6.302;2023-02-08T13:20:46;6.15;;;3.22;;
22201;SDS011;11266;51.522;6.302;2023-02-08T13:21:36;5.32;;;3.10;;
22201;SDS011;11266;51.522;6.302;2023-02-08T13:22:28;4.60;;;2.85;;
22201;SDS011;11266;51.522;6.302;2023-02-08T13:23:19;5.80;;;3.50;;
22201;SDS011;11266;51.522;6.302;2023-02-08T13:25:34;6.35;;;3.22;;
22201;SDS011;11266;51.522;6.302;2023-02-08T13:26:23;7.05;;;3.15;;
22201;SDS011;11266;51.522;6.302;2023-02-08T13:27:15;8.50;;;3.63;;
22201;SDS011;11266;51.522;6.302;2023-02-08T13:28:03;6.18;;;3.20;;
22201;SDS011;11266;51.522;6.302;2023-02-08T13:28:51;7.25;;;3.17;;
22201;SDS011;11266;51.522;6.302;2023-02-08T13:29:38;6.22;;;3.25;;
22201;SDS011;11266;51.522;6.302;2023-02-08T13:30:24;7.97;;;3.65;;
22201;SDS011;11266;51.522;6.302;2023-02-08T13:31:13;13.15;;;3.75;;
22201;SDS011;11266;51.522;6.302;2023-02-08T13:32:09;4.60;;;2.72;;
22201;SDS011;11266;51.522;6.302;2023-02-08T13:33:10;5.53;;;2.88;;
22201;SDS011;11266;51.522;6.302;2023-02-08T13:34:07;4.82;;;2.50;;
22201;SDS011;11266;51.522;6.302;2023-02-08T13:35:58;5.05;;;2.75;;
22201;SDS011;11266;51.522;6.302;2023-02-08T13:36:57;6.68;;;3.72;;
22201;SDS011;11266;51.522;6.302;2023-02-08T13:37:49;6.63;;;3.38;;
22201;SDS011;11266;51.522;6.302;2023-02-08T13:38:38;5.32;;;3.10;;
22201;SDS011;11266;51.522;6.302;2023-02-08T13:39:33;5.75;;;3.15;;
22201;SDS011;11266;51.522;6.302;2023-02-08T13:40:27;6.18;;;3.00;;
22201;SDS011;11266;51.522;6.302;2023-02-08T13:41:17;6.25;;;2.85;;
22201;SDS011;11266;51.522;6.302;2023-02-08T13:42:05;4.25;;;2.60;;
22201;SDS011;11266;51.522;6.302;2023-02-08T13:44:38;5.80;;;3.28;;
22201;SDS011;11266;51.522;6.302;2023-02-08T13:45:28;4.63;;;2.60;;
22201;SDS011;11266;51.522;6.302;2023-02-08T13:46:26;5.25;;;3.10;;
22201;SDS011;11266;51.522;6.302;2023-02-08T13:48:01;5.47;;;2.97;;
22201;SDS011;11266;51.522;6.302;2023-02-08T13:48:42;6.72;;;2.88;;
22201;SDS011;11266;51.522;6.302;2023-02-08T13:50:47;5.43;;;3.03;;
22201;SDS011;11266;51.522;6.302;2023-02-08T13:54:08;4.57;;;2.78;;
22201;SDS011;11266;51.522;6.302;2023-02-08T13:54:37;5.32;;;3.00;;
22201;SDS011;11266;51.522;6.302;2023-02-08T13:56:19;4.80;;;2.75;;
22201;SDS011;11266;51.522;6.302;2023-02-08T13:58:07;7.68;;;2.80;;
22201;SDS011;11266;51.522;6.302;2023-02-08T13:59:33;9.35;;;2.90;;
22201;SDS011;11266;51.522;6.302;2023-02-08T14:01:07;5.63;;;2.95;;
22201;SDS011;11266;51.522;6.302;2023-02-08T14:02:09;4.45;;;;;
22201;SDS011;11266;51.522;6.302;2023-02-08T14:04:26;5.70;;;2.83;;
22201;SDS011;11266;51.522;6.302;2023-02-08T14:05:47;6.55;;;2.60;;
22201;SDS011;11266;51.522;6.302;2023-02-08T14:08:00;4.63;;;2.53;;
22201;SDS011;11266;51.522;6.302;2023-02-08T14:10:15;4.60;;;2.45;;
22201;SDS011;11266;51.522;6.302;2023-02-08T14:11:19;5.47;;;2.95;;
22201;SDS011;11266;51.522;6.302;2023-02-08T14:12:25;7.65;;;2.80;;
22201;SDS011;11266;51.522;6.302;2023-02-08T14:14:01;5.35;;;2.65;;
22201;SDS011;11266;51.522;6.302;2023-02-08T14:14:43;7.90;;;2.78;;
22201;SDS011;11266;51.522;6.302;2023-02-08T14:17:22;7.28;;;3.00;;
22201;SDS011;11266;51.522;6.302;2023-02-08T14:18:18;7.18;;;2.63;;
22201;SDS011;11266;51.522;6.302;2023-02-08T14:20:04;4.93;;;2.58;;
22201;SDS011;11266;51.522;6.302;2023-02-08T14:20:59;4.57;;;2.50;;
22201;SDS011;11266;51.522;6.302;2023-02-08T14:21:52;4.57;;;2.40;;
22201;SDS011;11266;51.522;6.302;2023-02-08T14:22:56;4.78;;;2.85;;
22201;SDS011;11266;51.522;6.302;2023-02-08T14:23:45;7.15;;;2.80;;
22201;SDS011;11266;51.522;6.302;2023-02-08T14:24:46;4.28;;;2.28;;
22201;SDS011;11266;51.522;6.302;2023-02-08T14:25:42;5.30;;;2.47;;
22201;SDS011;11266;51.522;6.302;2023-02-08T14:26:31;3.58;;;2.38;;
22201;SDS011;11266;51.522;6.302;2023-02-08T14:28:28;8.32;;;2.83;;
22201;SDS011;11266;51.522;6.302;2023-02-08T14:29:24;9.23;;;3.25;;
22201;SDS011;11266;51.522;6.302;2023-02-08T14:31:01;5.05;;;3.08;;
22201;SDS011;11266;51.522;6.302;2023-02-08T14:31:51;5.18;;;3.00;;
22201;SDS011;11266;51.522;6.302;2023-02-08T14:32:37;5.32;;;2.80;;
22201;SDS011;11266;51.522;6.302;2023-02-08T14:33:31;7.68;;;3.08;;
22201;SDS011;11266;51.522;6.302;2023-02-08T14:34:29;5.15;;;2.30;;
22201;SDS011;11266;51.522;6.302;2023-02-08T14:35:20;4.88;;;2.47;;
22201;SDS011;11266;51.522;6.302;2023-02-08T14:36:21;3.78;;;2.22;;
22201;SDS011;11266;51.522;6.302;2023-02-08T14:41:06;5.82;;;2.42;;
22201;SDS011;11266;51.522;6.302;2023-02-08T14:41:56;5.70;;;2.47;;
22201;SDS011;11266;51.522;6.302;2023-02-08T14:43:47;4.63;;;2.47;;
22201;SDS011;11266;51.522;6.302;2023-02-08T14:49:21;8.70;;;2.45;;
22201;SDS011;11266;51.522;6.302;2023-02-08T14:50:14;5.50;;;2.58;;
22201;SDS011;11266;51.522;6.302;2023-02-08T14:52:02;4.38;;;2.47;;
22201;SDS011;11266;51.522;6.302;2023-02-08T14:52:59;5.25;;;2.58;;
22201;SDS011;11266;51.522;6.302;2023-02-08T14:54:16;4.38;;;2.42;;
22201;SDS011;11266;51.522;6.302;2023-02-08T14:55:03;4.28;;;2.38;;
22201;SDS011;11266;51.522;6.302;2023-02-08T14:56:02;4.22;;;2.35;;
22201;SDS011;11266;51.522;6.302;2023-02-08T14:57:22;4.07;;;2.30;;
22201;SDS011;11266;51.522;6.302;2023-02-08T14:58:09;5.15;;;2.42;;
22201;SDS011;11266;51.522;6.302;2023-02-08T14:59:01;7.85;;;2.55;;
22201;SDS011;11266;51.522;6.302;2023-02-08T14:59:51;5.93;;;3.00;;
22201;SDS011;11266;51.522;6.302;2023-02-08T15:00:38;4.65;;;2.40;;
22201;SDS011;11266;51.522;6.302;2023-02-08T15:02:18;5.78;;;2.85;;
22201;SDS011;11266;51.522;6.302;2023-02-08T15:03:06;4.72;;;2.70;;
22201;SDS011;11266;51.522;6.302;2023-02-08T15:03:59;6.07;;;2.85;;
22201;SDS011;11266;51.522;6.302;2023-02-08T15:04:45;4.43;;;2.83;;
22201;SDS011;11266;51.522;6.302;2023-02-08T15:05:36;5.22;;;2.65;;
22201;SDS011;11266;51.522;6.302;2023-02-08T15:07:51;7.07;;;3.03;;
22201;SDS011;11266;51.522;6.302;2023-02-08T15:08:39;6.65;;;2.70;;
22201;SDS011;11266;51.522;6.302;2023-02-08T15:09:26;6.20;;;2.65;;
22201;SDS011;11266;51.522;6.302;2023-02-08T15:10:16;4.78;;;2.22;;
22201;SDS011;11266;51.522;6.302;2023-02-08T15:11:17;7.50;;;2.55;;
22201;SDS011;11266;51.522;6.302;2023-02-08T15:13:19;6.53;;;2.78;;
22201;SDS011;11266;51.522;6.302;2023-02-08T15:14:15;5.80;;;2.75;;
22201;SDS011;11266;51.522;6.302;2023-02-08T15:15:04;8.70;;;2.83;;
22201;SDS011;11266;51.522;6.302;2023-02-08T15:15:54;6.18;;;2.58;;
22201;SDS011;11266;51.522;6.302;2023-02-08T15:16:42;6.93;;;2.60;;
22201;SDS011;11266;51.522;6.302;2023-02-08T15:18:31;5.10;;;2.70;;
22201;SDS011;11266;51.522;6.302;2023-02-08T15:19:19;5.60;;;2.78;;
22201;SDS011;11266;51.522;6.302;2023-02-08T15:20:21;3.80;;;2.05;;
22201;SDS011;11266;51.522;6.302;2023-02-08T15:21:14;4.68;;;2.40;;
22201;SDS011;11266;51.522;6.302;2023-02-08T15:22:15;5.72;;;2.67;;
22201;SDS011;11266;51.522;6.302;2023-02-08T15:25:19;5.63;;;2.47;;
22201;SDS011;11266;51.522;6.302;2023-02-08T15:26:18;6.45;;;2.67;;
22201;SDS011;11266;51.522;6.302;2023-02-08T15:27:15;8.05;;;2.80;;
22201;SDS011;11266;51.522;6.302;2023-02-08T15:28:16;4.82;;;2.30;;
22201;SDS011;11266;51.522;6.302;2023-02-08T15:29:14;5.05;;;2.53;;
22201;SDS011;11266;51.522;6.302;2023-02-08T15:30:28;7.55;;;3.15;;
22201;SDS011;11266;51.522;6.302;2023-02-08T15:31:17;5.43;;;2.42;;
22201;SDS011;11266;51.522;6.302;2023-02-08T15:32:16;4.35;;;2.17;;
22201;SDS011;11266;51.522;6.302;2023-02-08T15:33:13;6.97;;;2.28;;
22201;SDS011;11266;51.522;6.302;2023-02-08T15:34:01;5.38;;;2.33;;
22201;SDS011;11266;51.522;6.302;2023-02-08T15:34:54;4.53;;;2.53;;
22201;SDS011;11266;51.522;6.302;2023-02-08T15:35:44;5.68;;;2.70;;
22201;SDS011;11266;51.522;6.302;2023-02-08T15:36:38;4.38;;;2.42;;
22201;SDS011;11266;51.522;6.302;2023-02-08T15:37:29;5.72;;;2.38;;
22201;SDS011;11266;51.522;6.302;2023-02-08T15:38:20;5.07;;;2.60;;
22201;SDS011;11266;51.522;6.302;2023-02-08T15:39:09;4.95;;;3.10;;
22201;SDS011;11266;51.522;6.302;2023-02-08T15:41:23;4.32;;;2.40;;
22201;SDS011;11266;51.522;6.302;2023-02-08T15:42:18;5.63;;;2.63;;
22201;SDS011;11266;51.522;6.302;2023-02-08T15:43:12;3.80;;;2.30;;
22201;SDS011;11266;51.522;6.302;2023-02-08T15:44:17;6.32;;;2.50;;
22201;SDS011;11266;51.522;6.302;2023-02-08T15:45:45;6.03;;;2.53;;
22201;SDS011;11266;51.522;6.302;2023-02-08T15:46:24;7.25;;;2.35;;
22201;SDS011;11266;51.522;6.302;2023-02-08T15:47:16;5.63;;;2.55;;
22201;SDS011;11266;51.522;6.302;2023-02-08T15:48:06;4.65;;;2.60;;
22201;SDS011;11266;51.522;6.302;2023-02-08T15:48:52;3.90;;;2.25;;
22201;SDS011;11266;51.522;6.302;2023-02-08T15:49:45;5.70;;;3.03;;
22201;SDS011;11266;51.522;6.302;2023-02-08T15:50:34;8.35;;;3.45;;
22201;SDS011;11266;51.522;6.302;2023-02-08T15:51:20;4.20;;;2.17;;
22201;SDS011;11266;51.522;6.302;2023-02-08T15:52:08;6.22;;;2.80;;
22201;SDS011;11266;51.522;6.302;2023-02-08T15:53:03;6.53;;;2.22;;
22201;SDS011;11266;51.522;6.302;2023-02-08T15:53:52;5.05;;;2.45;;
22201;SDS011;11266;51.522;6.302;2023-02-08T15:54:38;7.93;;;2.67;;
22201;SDS011;11266;51.522;6.302;2023-02-08T15:55:24;7.85;;;2.45;;
22201;SDS011;11266;51.522;6.302;2023-02-08T15:56:17;3.88;;;2.38;;
22201;SDS011;11266;51.522;6.302;2023-02-08T15:57:08;6.72;;;2.90;;
22201;SDS011;11266;51.522;6.302;2023-02-08T15:58:50;5.82;;;3.45;;
22201;SDS011;11266;51.522;6.302;2023-02-08T15:59:23;4.60;;;2.65;;
22201;SDS011;11266;51.522;6.302;2023-02-08T16:00:17;5.20;;;2.50;;
22201;SDS011;11266;51.522;6.302;2023-02-08T16:01:07;6.57;;;2.88;;
22201;SDS011;11266;51.522;6.302;2023-02-08T16:02:01;5.00;;;2.22;;
22201;SDS011;11266;51.522;6.302;2023-02-08T16:03:00;3.97;;;2.35;;
22201;SDS011;11266;51.522;6.302;2023-02-08T16:03:54;4.65;;;2.42;;
22201;SDS011;11266;51.522;6.302;2023-02-08T16:04:42;5.93;;;2.70;;
22201;SDS011;11266;51.522;6.302;2023-02-08T16:05:30;9.65;;;2.72;;
22201;SDS011;11266;51.522;6.302;2023-02-08T16:06:19;3.88;;;2.17;;
22201;SDS011;11266;51.522;6.302;2023-02-08T16:07:26;6.60;;;2.80;;
22201;SDS011;11266;51.522;6.302;2023-02-08T16:08:18;5.22;;;2.42;;
22201;SDS011;11266;51.522;6.302;2023-02-08T16:09:12;5.63;;;2.80;;
22201;SDS011;11266;51.522;6.302;2023-02-08T16:10:05;6.07;;;2.67;;
22201;SDS011;11266;51.522;6.302;2023-02-08T16:10:54;4.05;;;2.55;;
22201;SDS011;11266;51.522;6.302;2023-02-08T16:11:44;6.20;;;2.58;;
22201;SDS011;11266;51.522;6.302;2023-02-08T16:12:33;5.82;;;2.65;;
22201;SDS011;11266;51.522;6.302;2023-02-08T16:13:44;5.05;;;2.60;;
22201;SDS011;11266;51.522;6.302;2023-02-08T16:14:30;4.45;;;2.10;;
22201;SDS011;11266;51.522;6.302;2023-02-08T16:16:42;6.38;;;2.55;;
22201;SDS011;11266;51.522;6.302;2023-02-08T16:17:44;5.30;;;2.63;;
22201;SDS011;11266;51.522;6.302;2023-02-08T16:20:26;5.25;;;2.85;;
22201;SDS011;11266;51.522;6.302;2023-02-08T16:21:21;4.32;;;2.35;;
22201;SDS011;11266;51.522;6.302;2023-02-08T16:26:34;3.95;;;2.13;;
22201;SDS011;11266;51.522;6.302;2023-02-08T16:27:26;3.60;;;2.30;;
22201;SDS011;11266;51.522;6.302;2023-02-08T16:28:33;4.43;;;2.20;;
22201;SDS011;11266;51.522;6.302;2023-02-08T16:29:20;4.38;;;2.40;;
22201;SDS011;11266;51.522;6.302;2023-02-08T16:30:21;4.30;;;2.47;;
22201;SDS011;11266;51.522;6.302;2023-02-08T16:31:10;3.97;;;2.20;;
22201;SDS011;11266;51.522;6.302;2023-02-08T16:32:03;3.83;;;2.45;;
22201;SDS011;11266;51.522;6.302;2023-02-08T16:33:11;4.80;;;2.10;;
22201;SDS011;11266;51.522;6.302;2023-02-08T16:34:07;5.63;;;2.60;;
22201;SDS011;11266;51.522;6.302;2023-02-08T16:34:59;4.70;;;2.10;;
22201;SDS011;11266;51.522;6.302;2023-02-08T16:35:56;4.40;;;2.50;;
22201;SDS011;11266;51.522;6.302;2023-02-08T16:36:46;3.97;;;2.50;;
22201;SDS011;11266;51.522;6.302;2023-02-08T16:37:34;5.43;;;2.53;;
22201;SDS011;11266;51.522;6.302;2023-02-08T16:38:21;4.97;;;2.55;;
22201;SDS011;11266;51.522;6.302;2023-02-08T16:40:02;6.65;;;2.53;;
22201;SDS011;11266;51.522;6.302;2023-02-08T16:40:49;4.80;;;2.47;;
22201;SDS011;11266;51.522;6.302;2023-02-08T16:42:40;5.20;;;2.55;;
22201;SDS011;11266;51.522;6.302;2023-02-08T16:43:29;4.75;;;2.70;;
22201;SDS011;11266;51.522;6.302;2023-02-08T16:44:21;4.50;;;2.67;;
22201;SDS011;11266;51.522;6.302;2023-02-08T16:45:13;5.10;;;2.65;;
22201;SDS011;11266;51.522;6.302;2023-02-08T16:46:55;5.18;;;2.53;;
22201;SDS011;11266;51.522;6.302;2023-02-08T16:47:46;6.40;;;2.67;;
22201;SDS011;11266;51.522;6.302;2023-02-08T16:48:35;5.05;;;2.85;;
22201;SDS011;11266;51.522;6.302;2023-02-08T16:49:22;4.28;;;2.33;;
22201;SDS011;11266;51.522;6.302;2023-02-08T16:50:12;4.40;;;2.35;;
22201;SDS011;11266;51.522;6.302;2023-02-08T16:51:04;6.72;;;2.90;;
22201;SDS011;11266;51.522;6.302;2023-02-08T16:51:57;5.43;;;2.83;;
22201;SDS011;11266;51.522;6.302;2023-02-08T16:52:44;6.72;;;2.40;;
22201;SDS011;11266;51.522;6.302;2023-02-08T16:53:37;4.53;;;2.90;;
22201;SDS011;11266;51.522;6.302;2023-02-08T16:54:22;4.45;;;2.83;;
22201;SDS011;11266;51.522;6.302;2023-02-08T16:55:19;5.75;;;3.13;;
22201;SDS011;11266;51.522;6.302;2023-02-08T16:56:06;5.47;;;2.65;;
22201;SDS011;11266;51.522;6.302;2023-02-08T16:56:55;5.05;;;3.00;;
22201;SDS011;11266;51.522;6.302;2023-02-08T16:57:48;6.18;;;3.08;;
22201;SDS011;11266;51.522;6.302;2023-02-08T16:58:38;5.97;;;2.70;;
22201;SDS011;11266;51.522;6.302;2023-02-08T16:59:24;8.07;;;3.25;;
22201;SDS011;11266;51.522;6.302;2023-02-08T17:00:12;5.13;;;2.88;;
22201;SDS011;11266;51.522;6.302;2023-02-08T17:01:03;5.70;;;2.85;;
22201;SDS011;11266;51.522;6.302;2023-02-08T17:01:49;7.00;;;2.70;;
22201;SDS011;11266;51.522;6.302;2023-02-08T17:02:37;7.57;;;3.20;;
22201;SDS011;11266;51.522;6.302;2023-02-08T17:03:22;7.35;;;3.17;;
22201;SDS011;11266;51.522;6.302;2023-02-08T17:04:08;9.48;;;2.88;;
22201;SDS011;11266;51.522;6.302;2023-02-08T17:04:54;7.72;;;3.13;;
22201;SDS011;11266;51.522;6.302;2023-02-08T17:05:39;6.57;;;3.33;;
22201;SDS011;11266;51.522;6.302;2023-02-08T17:06:34;5.55;;;3.17;;
22201;SDS011;11266;51.522;6.302;2023-02-08T17:07:21;5.07;;;2.80;;
22201;SDS011;11266;51.522;6.302;2023-02-08T17:08:13;6.45;;;2.83;;
22201;SDS011;11266;51.522;6.302;2023-02-08T17:09:01;7.78;;;3.10;;
22201;SDS011;11266;51.522;6.302;2023-02-08T17:09:48;6.78;;;3.17;;
22201;SDS011;11266;51.522;6.302;2023-02-08T17:10:34;9.68;;;2.80;;
22201;SDS011;11266;51.522;6.302;2023-02-08T17:11:20;7.28;;;3.20;;
22201;SDS011;11266;51.522;6.302;2023-02-08T17:12:09;5.88;;;3.00;;
22201;SDS011;11266;51.522;6.302;2023-02-08T17:12:56;8.43;;;3.05;;
22201;SDS011;11266;51.522;6.302;2023-02-08T17:13:43;8.90;;;3.10;;
22201;SDS011;11266;51.522;6.302;2023-02-08T17:14:29;9.90;;;3.95;;
22201;SDS011;11266;51.522;6.302;2023-02-08T17:15:14;5.40;;;3.00;;
22201;SDS011;11266;51.522;6.302;2023-02-08T17:16:01;8.15;;;3.30;;
22201;SDS011;11266;51.522;6.302;2023-02-08T17:16:48;7.43;;;3.20;;
22201;SDS011;11266;51.522;6.302;2023-02-08T17:17:37;7.97;;;3.05;;
22201;SDS011;11266;51.522;6.302;2023-02-08T17:18:22;6.25;;;3.42;;
22201;SDS011;11266;51.522;6.302;2023-02-08T17:19:14;5.03;;;2.67;;
22201;SDS011;11266;51.522;6.302;2023-02-08T17:20:01;6.85;;;3.05;;
22201;SDS011;11266;51.522;6.302;2023-02-08T17:20:47;8.05;;;3.20;;
22201;SDS011;11266;51.522;6.302;2023-02-08T17:21:32;4.88;;;2.72;;
22201;SDS011;11266;51.522;6.302;2023-02-08T17:22:18;5.85;;;3.08;;
22201;SDS011;11266;51.522;6.302;2023-02-08T17:23:04;7.15;;;3.22;;
22201;SDS011;11266;51.522;6.302;2023-02-08T17:23:52;7.93;;;3.00;;
22201;SDS011;11266;51.522;6.302;2023-02-08T17:24:38;6.35;;;2.90;;
22201;SDS011;11266;51.522;6.302;2023-02-08T17:25:24;5.75;;;3.03;;
22201;SDS011;11266;51.522;6.302;2023-02-08T17:26:20;8.60;;;3.17;;
22201;SDS011;11266;51.522;6.302;2023-02-08T17:27:13;6.28;;;3.50;;
22201;SDS011;11266;51.522;6.302;2023-02-08T17:28:03;7.85;;;3.15;;
22201;SDS011;11266;51.522;6.302;2023-02-08T17:28:54;7.40;;;3.40;;
22201;SDS011;11266;51.522;6.302;2023-02-08T17:29:43;6.32;;;3.25;;
22201;SDS011;11266;51.522;6.302;2023-02-08T17:30:33;7.97;;;3.20;;
22201;SDS011;11266;51.522;6.302;2023-02-08T17:31:24;9.60;;;3.03;;
22201;SDS011;11266;51.522;6.302;2023-02-08T17:32:12;4.90;;;2.75;;
22201;SDS011;11266;51.522;6.302;2023-02-08T17:32:57;6.93;;;3.30;;
22201;SDS011;11266;51.522;6.302;2023-02-08T17:33:43;5.32;;;3.00;;
22201;SDS011;11266;51.522;6.302;2023-02-08T17:34:29;6.68;;;2.85;;
22201;SDS011;11266;51.522;6.302;2023-02-08T17:35:16;7.88;;;3.22;;
22201;SDS011;11266;51.522;6.302;2023-02-08T17:36:02;7.47;;;3.40;;
22201;SDS011;11266;51.522;6.302;2023-02-08T17:36:47;6.80;;;3.25;;
22201;SDS011;11266;51.522;6.302;2023-02-08T17:37:33;5.80;;;3.25;;
22201;SDS011;11266;51.522;6.302;2023-02-08T17:38:19;7.25;;;3.20;;
22201;SDS011;11266;51.522;6.302;2023-02-08T17:39:05;6.28;;;2.92;;
22201;SDS011;11266;51.522;6.302;2023-02-08T17:39:51;8.65;;;3.15;;
22201;SDS011;11266;51.522;6.302;2023-02-08T17:40:36;6.72;;;3.50;;
22201;SDS011;11266;51.522;6.302;2023-02-08T17:41:22;7.60;;;3.40;;
22201;SDS011;11266;51.522;6.302;2023-02-08T17:42:08;8.30;;;3.83;;
22201;SDS011;11266;51.522;6.302;2023-02-08T17:42:56;6.63;;;3.47;;
22201;SDS011;11266;51.522;6.302;2023-02-08T17:43:42;7.13;;;2.92;;
22201;SDS011;11266;51.522;6.302;2023-02-08T17:44:30;9.73;;;3.33;;
22201;SDS011;11266;51.522;6.302;2023-02-08T17:45:16;8.57;;;3.10;;
22201;SDS011;11266;51.522;6.302;2023-02-08T17:46:06;8.82;;;3.70;;
22201;SDS011;11266;51.522;6.302;2023-02-08T17:46:54;6.38;;;3.25;;
22201;SDS011;11266;51.522;6.302;2023-02-08T17:47:40;7.20;;;3.33;;
22201;SDS011;11266;51.522;6.302;2023-02-08T17:48:28;6.47;;;3.65;;
22201;SDS011;11266;51.522;6.302;2023-02-08T17:49:14;6.40;;;3.83;;
22201;SDS011;11266;51.522;6.302;2023-02-08T17:50:00;7.55;;;3.60;;
22201;SDS011;11266;51.522;6.302;2023-02-08T17:50:46;10.10;;;3.63;;
22201;SDS011;11266;51.522;6.302;2023-02-08T17:51:34;6.35;;;3.40;;
22201;SDS011;11266;51.522;6.302;2023-02-08T17:52:20;7.35;;;3.80;;
22201;SDS011;11266;51.522;6.302;2023-02-08T17:53:06;6.35;;;3.38;;
22201;SDS011;11266;51.522;6.302;2023-02-08T17:53:51;9.20;;;3.83;;
22201;SDS011;11266;51.522;6.302;2023-02-08T17:54:37;6.70;;;3.30;;
22201;SDS011;11266;51.522;6.302;2023-02-08T17:55:23;8.00;;;3.72;;
22201;SDS011;11266;51.522;6.302;2023-02-08T17:56:09;7.30;;;3.70;;
22201;SDS011;11266;51.522;6.302;2023-02-08T17:56:57;8.80;;;3.88;;
22201;SDS011;11266;51.522;6.302;2023-02-08T17:57:44;7.43;;;3.40;;
22201;SDS011;11266;51.522;6.302;2023-02-08T17:58:30;6.38;;;3.58;;
22201;SDS011;11266;51.522;6.302;2023-02-08T17:59:16;6.63;;;3.45;;
22201;SDS011;11266;51.522;6.302;2023-02-08T18:00:03;8.88;;;3.78;;
